Time;durP1;ratioP1;P1;durP2;ratioP2;P2;SDS_P1;SDS_P2;PMS_P1;PMS_P2;Temp;Humidity;BMP_temperature;BMP_pressure;BME280_temperature;BME280_humidity;BME280_pressure;Samples;Min_cycle;Max_cycle;Signal;HPM_P1;HPM_P2
2023/03/13 00:02:19;;;;;;;6.40;2.10;;;16.50;57.90;;;;;;5083629;28;20287;-46
2023/03/13 00:04:47;;;;;;;5.63;2.37;;;16.50;57.90;;;;;;5086503;28;20230;-46
2023/03/13 00:07:17;;;;;;;6.90;2.60;;;16.50;57.90;;;;;;5084218;28;20201;-46
2023/03/13 00:09:48;;;;;;;3.53;2.03;;;16.60;58.10;;;;;;5086612;28;20279;-46
2023/03/13 00:12:16;;;;;;;8.00;2.83;;;16.50;58.10;;;;;;5048366;28;20516;-46
2023/03/13 00:14:50;;;;;;;5.90;2.27;;;16.50;58.00;;;;;;5086625;28;20548;-47
2023/03/13 00:17:19;;;;;;;5.77;2.40;;;16.60;58.10;;;;;;5065981;28;20629;-46
2023/03/13 00:19:52;;;;;;;5.17;2.37;;;16.50;58.10;;;;;;5085618;28;20212;-46
2023/03/13 00:22:22;;;;;;;5.43;2.10;;;16.60;58.20;;;;;;5086020;28;20215;-46
2023/03/13 00:24:53;;;;;;;4.60;2.33;;;16.50;58.10;;;;;;5082892;28;20253;-48
2023/03/13 00:27:23;;;;;;;6.03;2.20;;;16.50;58.10;;;;;;5084394;28;20189;-46
2023/03/13 00:29:52;;;;;;;6.50;2.57;;;16.50;58.20;;;;;;5077989;28;20540;-46
2023/03/13 00:32:23;;;;;;;5.90;2.60;;;16.50;58.20;;;;;;5075196;28;20212;-46
2023/03/13 00:34:53;;;;;;;7.27;2.20;;;16.50;58.30;;;;;;5085314;28;20301;-46
2023/03/13 00:37:22;;;;;;;7.43;2.27;;;16.50;58.30;;;;;;5081905;28;20201;-46
2023/03/13 00:39:52;;;;;;;5.60;2.50;;;16.50;58.30;;;;;;5086124;28;20208;-46
2023/03/13 00:42:22;;;;;;;5.30;1.90;;;16.50;58.30;;;;;;5086885;28;20204;-47
2023/03/13 00:44:51;;;;;;;3.83;1.93;;;16.50;58.30;;;;;;5086070;28;20200;-46
2023/03/13 00:47:24;;;;;;;7.43;2.57;;;16.50;58.30;;;;;;5080433;28;20673;-46
2023/03/13 00:49:56;;;;;;;6.33;1.90;;;16.50;58.40;;;;;;5068183;28;20721;-46
2023/03/13 00:52:27;;;;;;;6.27;2.33;;;16.50;58.50;;;;;;5086911;28;20194;-46
2023/03/13 00:54:55;;;;;;;4.63;2.07;;;16.50;58.50;;;;;;5085926;28;20220;-46
2023/03/13 00:57:25;;;;;;;4.30;1.87;;;16.50;58.50;;;;;;5068624;28;20185;-46
2023/03/13 00:59:53;;;;;;;5.37;2.07;;;16.50;58.60;;;;;;5068303;28;20308;-47
2023/03/13 01:02:22;;;;;;;4.53;1.77;;;16.50;58.50;;;;;;5088231;28;20200;-46
2023/03/13 01:04:58;;;;;;;5.90;2.17;;;16.50;58.50;;;;;;5089958;28;20200;-46
2023/03/13 01:07:41;;;;;;;5.03;1.83;;;16.50;58.60;;;;;;5086154;28;20301;-46
2023/03/13 01:10:09;;;;;;;7.20;2.20;;;16.50;58.70;;;;;;5094045;28;20277;-46
2023/03/13 01:12:42;;;;;;;6.97;2.37;;;16.50;58.60;;;;;;5087835;28;20224;-45
2023/03/13 01:15:14;;;;;;;6.37;2.27;;;16.50;58.60;;;;;;5081016;28;20237;-46
2023/03/13 01:17:46;;;;;;;4.37;1.77;;;16.40;58.60;;;;;;5088107;28;20186;-46
2023/03/13 01:20:16;;;;;;;5.13;2.37;;;16.50;58.70;;;;;;5085880;28;20193;-46
2023/03/13 01:22:48;;;;;;;5.43;2.13;;;16.50;58.70;;;;;;5071345;28;20203;-46
2023/03/13 01:25:19;;;;;;;5.00;1.93;;;16.50;58.80;;;;;;5083466;28;20204;-47
2023/03/13 01:27:50;;;;;;;8.13;2.47;;;16.50;58.70;;;;;;5086392;28;20211;-46
2023/03/13 01:30:23;;;;;;;4.33;1.77;;;16.50;58.80;;;;;;5087730;28;20948;-46
2023/03/13 01:32:52;;;;;;;5.23;1.70;;;16.50;58.80;;;;;;5088452;28;20539;-46
2023/03/13 01:35:21;;;;;;;4.50;1.90;;;16.40;58.80;;;;;;5081846;28;20658;-46
2023/03/13 01:37:51;;;;;;;5.53;1.80;;;16.40;58.80;;;;;;5070631;28;20302;-46
2023/03/13 01:40:22;;;;;;;7.60;2.03;;;16.50;59.00;;;;;;5086147;28;20583;-46
2023/03/13 01:43:12;;;;;;;6.47;2.30;;;16.40;58.80;;;;;;5067873;28;20194;-46
2023/03/13 01:46:16;;;;;;;6.27;2.30;;;16.40;58.90;;;;;;5091928;28;20276;-46
2023/03/13 01:49:08;;;;;;;6.13;2.10;;;16.40;59.00;;;;;;5081936;28;20198;-46
2023/03/13 01:52:05;;;;;;;3.67;1.87;;;16.40;59.00;;;;;;5079560;28;20211;-46
2023/03/13 01:55:05;;;;;;;4.70;1.53;;;16.40;59.00;;;;;;5067820;28;20274;-46
2023/03/13 01:57:49;;;;;;;4.47;1.70;;;16.40;59.10;;;;;;5088324;28;20252;-46
2023/03/13 02:00:29;;;;;;;4.80;1.87;;;16.40;59.10;;;;;;5045261;28;20222;-46
2023/03/13 02:03:05;;;;;;;10.47;1.83;;;16.40;59.20;;;;;;5060929;28;20229;-46
2023/03/13 02:05:39;;;;;;;4.77;1.73;;;16.40;59.20;;;;;;5058730;28;20189;-46
2023/03/13 02:08:17;;;;;;;3.00;1.40;;;16.40;59.20;;;;;;5063256;28;20649;-46
2023/03/13 02:11:00;;;;;;;5.10;2.07;;;16.40;59.30;;;;;;5053368;28;20694;-46
2023/03/13 02:13:46;;;;;;;4.70;2.33;;;16.40;59.30;;;;;;5051862;28;20290;-46
2023/03/13 02:16:25;;;;;;;4.57;2.20;;;16.40;59.40;;;;;;5065837;28;20739;-45
2023/03/13 02:18:56;;;;;;;3.47;1.40;;;16.40;59.40;;;;;;5047854;28;20716;-46
2023/03/13 02:21:43;;;;;;;5.30;1.63;;;16.40;59.40;;;;;;5068712;28;20193;-46
2023/03/13 02:24:37;;;;;;;3.87;1.50;;;16.40;59.40;;;;;;5053364;28;20213;-47
2023/03/13 02:27:06;;;;;;;4.37;1.53;;;16.40;59.50;;;;;;5066619;28;20765;-46
2023/03/13 02:29:43;;;;;;;2.70;1.33;;;16.40;59.50;;;;;;5059240;28;20192;-47
2023/03/13 02:32:12;;;;;;;4.50;1.50;;;16.40;59.50;;;;;;5063549;28;20190;-48
2023/03/13 02:34:50;;;;;;;2.80;1.20;;;16.40;59.60;;;;;;5037297;28;20238;-46
2023/03/13 02:37:44;;;;;;;3.87;1.30;;;16.40;59.60;;;;;;5049056;28;20295;-46
2023/03/13 02:40:26;;;;;;;4.70;1.53;;;16.40;59.60;;;;;;5053149;28;20280;-46
2023/03/13 02:43:06;;;;;;;3.60;1.10;;;16.40;59.60;;;;;;5066878;28;20223;-46
2023/03/13 02:45:41;;;;;;;3.60;1.13;;;16.40;59.70;;;;;;5063128;28;20195;-46
2023/03/13 02:48:12;;;;;;;3.23;1.27;;;16.40;59.80;;;;;;5057363;28;20390;-46
2023/03/13 02:50:43;;;;;;;3.17;1.23;;;16.40;59.70;;;;;;5067869;28;20200;-46
2023/03/13 02:53:14;;;;;;;3.50;1.30;;;16.40;59.80;;;;;;5060324;28;20200;-46
2023/03/13 02:55:43;;;;;;;4.70;1.50;;;16.40;59.80;;;;;;5062874;28;20237;-46
2023/03/13 02:58:17;;;;;;;2.27;1.40;;;16.40;59.70;;;;;;5057817;28;20200;-47
2023/03/13 03:00:48;;;;;;;4.10;1.60;;;16.40;59.80;;;;;;5054076;28;20210;-46
2023/03/13 03:03:17;;;;;;;3.63;1.60;;;16.40;59.80;;;;;;5064757;28;20522;-46
2023/03/13 03:05:48;;;;;;;5.70;1.73;;;16.40;59.80;;;;;;5056280;28;20217;-46
2023/03/13 03:08:17;;;;;;;3.17;1.30;;;16.40;59.80;;;;;;5066348;28;20194;-46
2023/03/13 03:10:48;;;;;;;3.13;1.20;;;16.40;59.80;;;;;;5062632;28;20235;-46
2023/03/13 03:13:20;;;;;;;2.23;1.20;;;16.40;59.80;;;;;;5052932;28;20236;-46
2023/03/13 03:15:51;;;;;;;3.33;1.00;;;16.40;59.80;;;;;;5052881;28;20233;-46
2023/03/13 03:18:22;;;;;;;1.90;0.90;;;16.40;59.90;;;;;;5066455;28;20604;-46
2023/03/13 03:20:53;;;;;;;2.57;1.07;;;16.40;59.80;;;;;;5061666;28;20201;-46
2023/03/13 03:23:24;;;;;;;1.87;1.07;;;16.40;59.90;;;;;;5081563;28;20181;-46
2023/03/13 03:25:53;;;;;;;3.33;1.37;;;16.40;59.90;;;;;;5087997;28;20200;-47
2023/03/13 03:28:24;;;;;;;2.73;1.27;;;16.40;59.90;;;;;;5086389;28;20668;-47
2023/03/13 03:30:55;;;;;;;2.43;0.97;;;16.40;60.00;;;;;;5087545;28;20254;-47
2023/03/13 03:33:27;;;;;;;2.33;0.90;;;16.40;60.00;;;;;;5064927;28;20196;-46
2023/03/13 03:36:10;;;;;;;2.23;1.10;;;16.40;60.00;;;;;;5082048;28;20245;-47
2023/03/13 03:38:42;;;;;;;2.67;1.20;;;16.40;60.00;;;;;;5069644;28;20184;-47
2023/03/13 03:41:15;;;;;;;4.23;1.17;;;16.40;60.00;;;;;;5066489;28;20204;-46
2023/03/13 03:43:46;;;;;;;1.80;0.90;;;16.40;60.00;;;;;;5070382;28;20200;-46
2023/03/13 03:46:16;;;;;;;2.93;1.70;;;16.40;60.10;;;;;;5069470;28;20188;-46
2023/03/13 03:48:47;;;;;;;2.57;1.00;;;16.40;60.00;;;;;;5082284;28;20256;-46
2023/03/13 03:51:17;;;;;;;3.13;1.20;;;16.40;60.00;;;;;;5084416;28;20192;-46
2023/03/13 03:53:49;;;;;;;3.40;1.10;;;16.40;60.10;;;;;;5086627;28;20604;-47
2023/03/13 03:56:20;;;;;;;3.13;1.20;;;16.40;60.10;;;;;;5087085;28;20608;-46
2023/03/13 03:58:49;;;;;;;3.10;1.20;;;16.40;60.20;;;;;;5082534;28;20678;-46
2023/03/13 04:01:19;;;;;;;1.77;0.93;;;16.40;60.20;;;;;;5056535;28;20216;-46
2023/03/13 04:03:47;;;;;;;1.10;0.77;;;16.40;60.20;;;;;;5066815;28;20537;-46
2023/03/13 04:06:18;;;;;;;2.70;1.00;;;16.40;60.20;;;;;;5065656;28;20851;-46
2023/03/13 04:09:00;;;;;;;2.73;0.80;;;16.40;60.20;;;;;;5064914;28;20255;-50
2023/03/13 04:11:27;;;;;;;1.77;1.20;;;16.40;60.20;;;;;;5054337;28;22362;-46
2023/03/13 04:13:57;;;;;;;1.63;1.33;;;16.40;60.20;;;;;;5066424;28;20646;-46
2023/03/13 04:16:25;;;;;;;2.53;0.70;;;16.40;60.30;;;;;;5066588;28;20221;-45
2023/03/13 04:18:57;;;;;;;2.17;0.93;;;16.40;60.20;;;;;;5067255;28;20186;-46
2023/03/13 04:21:29;;;;;;;1.77;1.00;;;16.40;60.30;;;;;;5064148;28;20578;-47
2023/03/13 04:23:57;;;;;;;3.17;1.10;;;16.40;60.30;;;;;;5062630;28;20209;-46
2023/03/13 04:26:28;;;;;;;4.00;0.90;;;16.40;60.30;;;;;;5065909;28;20225;-46
2023/03/13 04:29:00;;;;;;;1.20;0.90;;;16.40;60.90;;;;;;5065689;28;20571;-46
2023/03/13 04:31:31;;;;;;;2.37;0.93;;;16.40;60.40;;;;;;5047757;28;20783;-46
2023/03/13 04:34:01;;;;;;;1.03;0.87;;;16.40;60.30;;;;;;5036329;28;20236;-46
2023/03/13 04:36:33;;;;;;;0.97;0.73;;;16.40;60.30;;;;;;5067963;28;20229;-46
2023/03/13 04:39:04;;;;;;;2.00;1.03;;;16.40;60.30;;;;;;5058802;28;20737;-46
2023/03/13 04:41:36;;;;;;;1.57;0.90;;;16.40;60.40;;;;;;5037138;28;20186;-46
2023/03/13 04:44:03;;;;;;;2.07;0.97;;;16.40;60.40;;;;;;5070619;28;20217;-47
2023/03/13 04:46:34;;;;;;;2.10;0.93;;;16.40;60.50;;;;;;5070630;28;20190;-46
2023/03/13 04:49:05;;;;;;;2.47;1.00;;;16.40;60.50;;;;;;5030373;28;20525;-46
2023/03/13 04:51:37;;;;;;;1.33;1.10;;;16.40;60.50;;;;;;5045296;28;20740;-46
2023/03/13 04:54:09;;;;;;;1.57;0.83;;;16.40;60.40;;;;;;5070460;28;20202;-46
2023/03/13 04:56:40;;;;;;;4.63;0.90;;;16.40;60.40;;;;;;5070181;28;20732;-46
2023/03/13 04:59:12;;;;;;;1.83;0.90;;;16.40;60.50;;;;;;5073681;28;20574;-46
2023/03/13 05:01:42;;;;;;;1.50;0.70;;;16.40;60.50;;;;;;5067335;28;20207;-46
2023/03/13 05:04:15;;;;;;;1.20;0.97;;;16.40;60.50;;;;;;5082722;28;20188;-46
2023/03/13 05:06:48;;;;;;;1.67;1.00;;;16.40;60.60;;;;;;5102091;28;20189;-46
2023/03/13 05:09:19;;;;;;;1.33;1.00;;;16.50;60.60;;;;;;5096969;28;20221;-46
2023/03/13 05:11:50;;;;;;;1.77;0.80;;;16.50;61.20;;;;;;5098399;28;20223;-46
2023/03/13 05:14:21;;;;;;;2.57;1.10;;;16.40;60.60;;;;;;5097756;28;20259;-46
2023/03/13 05:16:52;;;;;;;2.60;1.00;;;16.40;60.70;;;;;;5096388;28;20205;-46
2023/03/13 05:19:21;;;;;;;2.03;0.90;;;16.40;60.70;;;;;;5091835;28;20201;-46
2023/03/13 05:21:59;;;;;;;1.77;1.10;;;16.50;60.80;;;;;;5089484;28;20197;-46
2023/03/13 05:24:32;;;;;;;1.93;1.17;;;16.40;60.70;;;;;;5091999;28;20205;-46
2023/03/13 05:27:07;;;;;;;1.37;1.20;;;16.50;60.70;;;;;;5095337;28;20207;-47
2023/03/13 05:29:37;;;;;;;1.33;1.20;;;16.40;60.70;;;;;;5075828;28;20193;-46
2023/03/13 05:32:08;;;;;;;1.57;1.00;;;16.50;60.80;;;;;;5093014;28;20625;-46
2023/03/13 05:34:38;;;;;;;1.77;0.90;;;16.50;61.10;;;;;;5083875;28;20195;-46
2023/03/13 05:37:06;;;;;;;2.23;0.90;;;16.40;61.00;;;;;;5095893;28;20818;-46
2023/03/13 05:39:36;;;;;;;2.03;1.00;;;16.50;61.10;;;;;;5102011;28;20288;-46
2023/03/13 05:42:06;;;;;;;1.43;0.90;;;16.50;61.00;;;;;;5100692;28;20273;-46
2023/03/13 05:44:35;;;;;;;2.17;1.10;;;16.50;61.10;;;;;;5096351;28;20612;-46
2023/03/13 05:47:08;;;;;;;1.23;0.97;;;16.40;61.10;;;;;;5072526;28;20196;-46
2023/03/13 05:49:43;;;;;;;1.00;0.80;;;16.50;61.10;;;;;;5091162;28;20190;-47
2023/03/13 05:52:15;;;;;;;1.63;1.17;;;16.40;61.10;;;;;;5093830;28;20181;-45
2023/03/13 05:54:46;;;;;;;0.80;0.73;;;16.40;61.10;;;;;;5087645;28;20189;-46
2023/03/13 05:57:17;;;;;;;2.83;0.93;;;16.50;61.20;;;;;;5089512;28;20232;-46
2023/03/13 05:59:48;;;;;;;1.20;0.80;;;16.40;61.10;;;;;;5055395;28;20226;-46
2023/03/13 06:02:31;;;;;;;1.63;1.07;;;16.50;61.20;;;;;;5060696;28;20560;-46
2023/03/13 06:05:03;;;;;;;1.37;0.90;;;16.50;61.30;;;;;;5068678;28;20192;-46
2023/03/13 06:07:33;;;;;;;1.50;1.00;;;16.50;61.20;;;;;;5058830;28;20198;-46
2023/03/13 06:10:04;;;;;;;2.30;1.30;;;16.50;61.40;;;;;;5067587;28;20188;-46
2023/03/13 06:12:36;;;;;;;1.53;0.93;;;16.50;61.30;;;;;;5047612;28;20205;-46
2023/03/13 06:15:08;;;;;;;1.40;1.00;;;16.50;61.30;;;;;;5050480;28;20213;-46
2023/03/13 06:17:50;;;;;;;1.67;1.03;;;16.50;61.30;;;;;;5064246;28;20818;-46
2023/03/13 06:20:21;;;;;;;1.00;0.87;;;16.50;61.40;;;;;;5074472;28;20193;-46
2023/03/13 06:22:55;;;;;;;1.90;0.90;;;16.50;61.40;;;;;;5066336;28;20204;-46
2023/03/13 06:25:26;;;;;;;1.80;1.40;;;16.50;61.50;;;;;;5061929;28;20224;-46
2023/03/13 06:27:58;;;;;;;1.27;0.90;;;16.40;61.40;;;;;;5053671;28;20205;-46
2023/03/13 06:30:27;;;;;;;3.60;1.13;;;16.40;61.30;;;;;;5068749;28;20653;-45
2023/03/13 06:32:59;;;;;;;1.60;0.90;;;16.50;61.40;;;;;;5067751;28;20224;-46
2023/03/13 06:35:42;;;;;;;1.57;1.17;;;16.50;61.40;;;;;;5071355;28;20329;-46
2023/03/13 06:38:45;;;;;;;2.73;1.10;;;16.50;61.40;;;;;;5068068;28;20216;-46
2023/03/13 06:41:14;;;;;;;26.57;5.70;;;16.50;61.40;;;;;;5059523;28;20194;-47
2023/03/13 06:43:45;;;;;;;39.13;10.67;;;16.50;61.50;;;;;;5066716;28;20200;-46
2023/03/13 06:46:23;;;;;;;38.80;7.77;;;16.50;61.60;;;;;;5068264;28;20182;-46
2023/03/13 06:48:58;;;;;;;36.30;9.23;;;16.50;61.50;;;;;;5063511;28;20217;-46
2023/03/13 06:51:29;;;;;;;35.57;8.63;;;16.50;61.60;;;;;;5047744;28;20624;-46
2023/03/13 06:54:02;;;;;;;35.20;8.33;;;16.50;61.60;;;;;;5050806;28;20194;-45
2023/03/13 06:56:34;;;;;;;29.10;8.10;;;16.50;61.60;;;;;;5070543;28;20213;-46
2023/03/13 06:59:07;;;;;;;36.30;9.27;;;16.50;61.60;;;;;;5066283;28;20256;-45
2023/03/13 07:01:51;;;;;;;35.10;9.03;;;16.50;61.70;;;;;;5059004;28;20672;-46
2023/03/13 07:04:32;;;;;;;49.90;11.70;;;16.50;61.90;;;;;;5058564;28;20202;-46
2023/03/13 07:07:04;;;;;;;54.70;12.23;;;16.50;61.90;;;;;;5063340;28;20201;-46
2023/03/13 07:09:32;;;;;;;54.13;13.40;;;16.50;61.80;;;;;;5041979;28;20202;-46
2023/03/13 07:12:09;;;;;;;59.27;14.27;;;16.50;61.90;;;;;;5061463;28;20205;-46
2023/03/13 07:14:41;;;;;;;48.53;12.20;;;16.50;61.90;;;;;;5064011;28;20204;-46
2023/03/13 07:17:13;;;;;;;42.27;11.50;;;16.50;61.80;;;;;;5063686;28;20654;-48
2023/03/13 07:19:43;;;;;;;56.93;13.70;;;16.60;61.70;;;;;;5062351;28;20335;-46
2023/03/13 07:22:13;;;;;;;45.67;12.33;;;16.50;61.80;;;;;;5067662;28;20189;-50
2023/03/13 07:24:44;;;;;;;47.07;11.93;;;16.50;61.80;;;;;;5055401;28;20687;-46
2023/03/13 07:27:16;;;;;;;42.30;11.33;;;16.50;61.70;;;;;;5053696;28;20210;-46
2023/03/13 07:29:43;;;;;;;44.87;11.00;;;16.60;61.90;;;;;;5063871;28;20248;-46
2023/03/13 07:32:12;;;;;;;39.73;10.87;;;16.50;61.90;;;;;;5067099;28;20662;-46
2023/03/13 07:34:45;;;;;;;38.90;12.07;;;16.60;61.80;;;;;;5055339;28;20193;-46
2023/03/13 07:37:16;;;;;;;37.53;10.53;;;16.60;61.80;;;;;;5060971;28;20237;-46
2023/03/13 07:39:46;;;;;;;33.63;8.80;;;16.60;61.90;;;;;;5052739;28;20197;-46
2023/03/13 07:42:16;;;;;;;34.00;9.00;;;16.60;61.90;;;;;;5065309;28;20780;-45
2023/03/13 07:44:46;;;;;;;29.60;8.10;;;16.60;62.00;;;;;;5068531;28;20208;-46
2023/03/13 07:47:20;;;;;;;28.37;8.13;;;16.60;61.90;;;;;;5061120;28;20201;-46
2023/03/13 07:49:52;;;;;;;30.77;8.60;;;16.60;61.90;;;;;;5057032;28;20247;-46
2023/03/13 07:52:26;;;;;;;24.93;7.37;;;16.60;62.00;;;;;;5038953;28;20193;-46
2023/03/13 07:54:57;;;;;;;25.33;7.53;;;16.60;61.90;;;;;;5050936;28;20197;-46
2023/03/13 07:57:28;;;;;;;30.97;7.93;;;16.60;61.90;;;;;;5047979;28;20217;-46
2023/03/13 08:00:02;;;;;;;26.10;7.10;;;16.60;62.10;;;;;;5063793;28;20240;-46
2023/03/13 08:02:39;;;;;;;22.80;6.97;;;16.60;62.00;;;;;;5067835;28;20182;-46
2023/03/13 08:05:08;;;;;;;20.77;6.80;;;16.60;62.50;;;;;;5064749;28;20208;-46
2023/03/13 08:07:39;;;;;;;16.90;6.03;;;16.60;62.10;;;;;;5071073;28;20201;-46
2023/03/13 08:10:12;;;;;;;20.37;5.77;;;16.60;62.00;;;;;;5057272;28;20239;-46
2023/03/13 08:12:44;;;;;;;19.30;5.53;;;16.60;62.10;;;;;;5050615;28;20205;-46
2023/03/13 08:15:13;;;;;;;17.37;5.73;;;16.60;62.10;;;;;;5067610;28;20591;-46
2023/03/13 08:17:41;;;;;;;17.53;5.37;;;16.60;62.20;;;;;;5071117;28;20218;-46
2023/03/13 08:20:12;;;;;;;15.37;5.13;;;16.60;62.00;;;;;;5066839;28;20493;-46
2023/03/13 08:22:49;;;;;;;14.53;4.97;;;16.60;62.00;;;;;;5053964;28;20292;-47
2023/03/13 08:25:19;;;;;;;13.83;5.03;;;16.60;62.00;;;;;;5062853;28;20655;-46
2023/03/13 08:27:48;;;;;;;12.97;4.43;;;16.60;62.10;;;;;;5032666;28;20203;-46
2023/03/13 08:30:20;;;;;;;13.97;3.80;;;16.60;62.00;;;;;;5050338;28;20213;-46
2023/03/13 08:32:51;;;;;;;13.43;4.13;;;16.60;62.00;;;;;;5062323;28;20233;-46
2023/03/13 08:35:22;;;;;;;12.40;4.27;;;16.60;61.90;;;;;;5059767;28;20584;-46
2023/03/13 08:37:53;;;;;;;14.70;3.93;;;16.70;62.00;;;;;;5051416;28;20686;-46
2023/03/13 08:40:23;;;;;;;14.47;3.60;;;16.70;61.90;;;;;;5067075;28;20189;-46
2023/03/13 08:42:53;;;;;;;12.63;4.53;;;16.70;61.80;;;;;;5066957;28;20198;-46
2023/03/13 08:45:24;;;;;;;12.23;3.77;;;16.70;61.80;;;;;;5066337;28;20535;-46
2023/03/13 08:47:57;;;;;;;9.80;3.83;;;16.70;61.90;;;;;;5065075;28;20213;-47
2023/03/13 08:50:27;;;;;;;12.33;3.60;;;16.70;61.90;;;;;;5070421;28;20197;-46
2023/03/13 08:53:00;;;;;;;13.67;4.00;;;16.70;61.90;;;;;;5061692;28;20237;-46
2023/03/13 08:55:30;;;;;;;11.33;3.40;;;16.70;61.90;;;;;;5049881;28;20198;-46
2023/03/13 08:58:03;;;;;;;10.47;3.57;;;16.70;61.90;;;;;;5070312;28;20243;-46
2023/03/13 09:00:32;;;;;;;8.03;3.03;;;16.70;61.80;;;;;;5079009;28;20252;-46
2023/03/13 09:03:03;;;;;;;11.33;3.67;;;16.70;62.00;;;;;;5093449;28;20201;-46
2023/03/13 09:05:36;;;;;;;6.63;3.03;;;16.70;61.90;;;;;;5091200;28;20636;-46
2023/03/13 09:08:29;;;;;;;8.80;3.37;;;16.70;61.90;;;;;;5056608;28;20198;-46
2023/03/13 09:11:01;;;;;;;10.63;3.50;;;16.70;62.00;;;;;;5092805;28;20192;-46
2023/03/13 09:13:35;;;;;;;7.50;2.97;;;16.70;61.90;;;;;;5077361;28;20228;-46
2023/03/13 09:16:18;;;;;;;6.77;2.43;;;16.80;62.00;;;;;;5073432;28;20217;-46
2023/03/13 09:18:55;;;;;;;7.17;2.80;;;16.80;62.00;;;;;;5062629;28;20196;-46
2023/03/13 09:21:31;;;;;;;6.83;2.60;;;16.80;61.90;;;;;;5065044;28;20193;-46
2023/03/13 09:24:27;;;;;;;5.80;2.37;;;16.80;61.90;;;;;;5069247;28;20212;-46
2023/03/13 09:27:03;;;;;;;5.27;2.43;;;16.80;61.80;;;;;;5090225;28;20203;-46
2023/03/13 09:29:38;;;;;;;5.10;2.63;;;16.80;61.90;;;;;;5082124;28;20823;-46
2023/03/13 09:32:21;;;;;;;5.33;2.30;;;16.80;61.90;;;;;;5076511;28;20587;-46
2023/03/13 09:34:52;;;;;;;6.00;2.30;;;16.80;62.10;;;;;;5081941;28;20190;-46
2023/03/13 09:37:28;;;;;;;8.93;2.90;;;16.80;62.20;;;;;;5072938;28;20216;-46
2023/03/13 09:39:59;;;;;;;7.83;2.53;;;16.80;62.10;;;;;;5078579;28;20573;-46
2023/03/13 09:42:43;;;;;;;5.43;2.70;;;16.80;62.20;;;;;;5081280;28;20315;-47
2023/03/13 09:45:31;;;;;;;4.53;2.23;;;16.80;62.10;;;;;;5057235;28;20250;-46
2023/03/13 09:48:23;;;;;;;4.60;2.50;;;16.80;62.10;;;;;;5086337;28;20220;-46
2023/03/13 09:51:14;;;;;;;5.33;2.20;;;16.80;62.10;;;;;;5057749;28;20190;-46
2023/03/13 09:54:03;;;;;;;6.47;2.23;;;16.90;62.80;;;;;;5075474;28;20186;-46
2023/03/13 09:57:43;;;;;;;4.03;2.20;;;16.90;62.20;;;;;;5081207;28;20269;-46
2023/03/13 10:00:40;;;;;;;3.73;2.07;;;16.90;62.10;;;;;;4965069;28;20324;-47
2023/03/13 10:03:35;;;;;;;6.27;2.23;;;16.90;62.30;;;;;;4970612;28;20221;-46
2023/03/13 10:06:13;;;;;;;2.87;1.70;;;16.90;62.50;;;;;;4968052;28;20212;-46
2023/03/13 10:08:44;;;;;;;5.20;2.20;;;16.90;62.50;;;;;;4953099;28;20650;-46
2023/03/13 10:11:40;;;;;;;3.03;1.60;;;16.90;62.40;;;;;;5030736;28;20202;-46
2023/03/13 10:14:38;;;;;;;4.43;1.70;;;16.90;62.40;;;;;;5031174;28;20268;-46
2023/03/13 10:17:14;;;;;;;3.03;1.63;;;16.90;62.50;;;;;;5044519;28;20229;-46
2023/03/13 10:20:07;;;;;;;3.53;1.67;;;16.90;62.40;;;;;;5050739;28;20222;-46
2023/03/13 10:22:37;;;;;;;3.53;1.57;;;16.90;62.50;;;;;;5053760;28;20205;-47
2023/03/13 10:25:41;;;;;;;4.67;1.77;;;17.00;62.70;;;;;;5019241;28;20199;-46
2023/03/13 10:28:14;;;;;;;4.17;1.80;;;17.00;62.90;;;;;;5038449;28;20206;-47
2023/03/13 10:30:54;;;;;;;3.17;1.30;;;17.00;62.70;;;;;;5024994;28;20217;-46
2023/03/13 10:33:39;;;;;;;3.13;1.50;;;17.00;62.70;;;;;;5047405;28;20222;-47
2023/03/13 10:36:13;;;;;;;3.77;1.60;;;17.00;62.60;;;;;;5084738;28;20212;-47
2023/03/13 10:38:54;;;;;;;3.37;1.60;;;17.00;62.60;;;;;;5088425;28;20250;-46
2023/03/13 10:41:35;;;;;;;3.50;1.50;;;17.00;62.90;;;;;;5085932;28;20196;-46
2023/03/13 10:44:18;;;;;;;2.73;1.40;;;17.00;62.90;;;;;;5087937;28;20642;-47
2023/03/13 10:46:54;;;;;;;2.10;1.20;;;17.00;62.70;;;;;;5055246;28;20604;-46
2023/03/13 10:49:57;;;;;;;2.53;1.13;;;17.10;62.70;;;;;;5070819;28;20296;-47
2023/03/13 10:52:50;;;;;;;2.70;1.60;;;17.00;62.80;;;;;;5084392;28;20185;-46
2023/03/13 10:55:24;;;;;;;2.30;1.17;;;17.10;63.00;;;;;;5086313;28;20185;-46
2023/03/13 10:58:04;;;;;;;4.60;1.20;;;17.10;62.90;;;;;;5071121;28;20225;-46
2023/03/13 11:00:37;;;;;;;2.00;1.27;;;17.10;62.70;;;;;;5066877;28;20220;-46
2023/03/13 11:03:32;;;;;;;2.47;1.00;;;17.10;62.60;;;;;;5071212;28;20200;-46
2023/03/13 11:06:03;;;;;;;2.10;1.07;;;17.00;62.70;;;;;;5067909;28;20197;-47
2023/03/13 11:08:40;;;;;;;2.80;1.57;;;17.00;62.80;;;;;;5085925;28;20242;-47
2023/03/13 11:12:01;;;;;;;1.83;1.10;;;17.10;62.70;;;;;;5057487;28;20193;-46
2023/03/13 11:14:34;;;;;;;1.90;1.13;;;17.10;62.90;;;;;;5073124;28;20213;-46
2023/03/13 11:17:38;;;;;;;2.53;1.10;;;17.10;62.90;;;;;;5059713;28;20212;-47
2023/03/13 11:20:32;;;;;;;1.60;1.00;;;17.10;62.90;;;;;;5059405;28;20623;-47
2023/03/13 11:23:39;;;;;;;2.13;1.20;;;17.10;62.80;;;;;;5077566;28;20189;-47
2023/03/13 11:26:39;;;;;;;1.70;1.10;;;17.10;62.90;;;;;;5085119;28;20227;-46
2023/03/13 11:29:35;;;;;;;3.37;1.23;;;17.10;63.00;;;;;;5069481;28;20294;-46
2023/03/13 11:32:21;;;;;;;2.20;1.23;;;17.10;62.90;;;;;;5079339;28;20205;-46
2023/03/13 11:35:00;;;;;;;2.03;1.13;;;17.10;62.90;;;;;;5069112;28;20226;-46
2023/03/13 11:37:31;;;;;;;2.00;1.20;;;17.10;62.80;;;;;;5063029;28;20543;-46
2023/03/13 11:40:27;;;;;;;1.47;1.10;;;17.10;63.10;;;;;;5056666;28;20243;-46
2023/03/13 11:43:28;;;;;;;3.10;1.10;;;17.10;63.00;;;;;;5042395;28;20228;-46
2023/03/13 11:46:47;;;;;;;2.10;1.30;;;17.20;63.10;;;;;;5085031;28;20266;-46
2023/03/13 11:49:40;;;;;;;2.23;1.37;;;17.20;63.00;;;;;;5014420;28;20203;-46
2023/03/13 11:52:43;;;;;;;1.57;0.93;;;17.20;63.20;;;;;;5008542;28;20774;-46
2023/03/13 11:55:44;;;;;;;1.80;1.10;;;17.20;63.20;;;;;;5021528;28;20888;-46
2023/03/13 11:58:38;;;;;;;1.90;1.00;;;17.20;63.10;;;;;;5018836;28;20340;-46
2023/03/13 12:01:18;;;;;;;1.90;0.90;;;17.20;63.00;;;;;;5013787;28;20272;-46
2023/03/13 12:04:07;;;;;;;1.77;0.90;;;17.20;63.20;;;;;;5008104;28;20762;-46
2023/03/13 12:07:20;;;;;;;1.33;1.10;;;17.20;63.20;;;;;;5024148;28;20296;-46
2023/03/13 12:10:14;;;;;;;2.30;1.10;;;17.20;63.10;;;;;;5035997;28;20215;-46
2023/03/13 12:13:24;;;;;;;2.20;1.03;;;17.20;63.00;;;;;;5008605;28;20234;-46
2023/03/13 12:16:11;;;;;;;1.33;0.87;;;17.20;63.00;;;;;;4968019;28;20568;-46
2023/03/13 12:18:45;;;;;;;1.37;0.93;;;17.30;63.00;;;;;;5002001;28;20211;-46
2023/03/13 12:21:44;;;;;;;1.67;0.90;;;17.30;63.20;;;;;;5080917;28;20872;-46
2023/03/13 12:24:28;;;;;;;1.90;1.20;;;17.30;63.30;;;;;;5084450;28;20235;-47
2023/03/13 12:27:09;;;;;;;2.20;1.30;;;17.30;63.20;;;;;;5085337;28;20211;-46
2023/03/13 12:30:10;;;;;;;3.53;0.97;;;17.30;63.10;;;;;;5055441;28;20202;-46
2023/03/13 12:33:25;;;;;;;1.73;0.93;;;17.30;63.20;;;;;;5086879;28;20216;-46
2023/03/13 12:36:30;;;;;;;3.97;1.00;;;17.30;62.90;;;;;;5065159;28;20633;-46
2023/03/13 12:39:40;;;;;;;1.60;0.80;;;17.40;63.00;;;;;;5077895;28;20220;-46
2023/03/13 12:42:43;;;;;;;1.07;0.67;;;17.40;63.00;;;;;;5075453;28;20209;-46
2023/03/13 12:45:20;;;;;;;1.30;0.77;;;17.40;63.00;;;;;;5091544;28;20192;-46
2023/03/13 12:48:12;;;;;;;2.10;0.90;;;17.40;62.70;;;;;;5065833;28;20220;-46
2023/03/13 12:51:33;;;;;;;2.23;1.07;;;17.40;62.60;;;;;;5088963;28;20425;-46
2023/03/13 12:54:19;;;;;;;0.77;0.60;;;17.40;62.80;;;;;;5087666;28;20204;-46
2023/03/13 12:57:16;;;;;;;1.83;1.00;;;17.40;62.80;;;;;;5101046;28;20203;-46
2023/03/13 12:59:58;;;;;;;0.90;0.70;;;17.40;62.90;;;;;;5080689;28;20270;-47
2023/03/13 13:02:31;;;;;;;1.43;0.70;;;17.40;62.60;;;;;;5095093;28;20739;-46
2023/03/13 13:05:02;;;;;;;1.37;0.70;;;17.40;62.60;;;;;;5092921;28;20601;-46
2023/03/13 13:07:35;;;;;;;2.53;1.10;;;17.40;63.40;;;;;;5063841;28;20537;-46
2023/03/13 13:10:22;;;;;;;1.93;1.00;;;17.40;62.70;;;;;;5065058;28;20199;-46
2023/03/13 13:13:17;;;;;;;2.03;0.90;;;17.50;62.60;;;;;;5081338;28;20305;-46
2023/03/13 13:16:13;;;;;;;3.37;1.00;;;17.50;62.40;;;;;;5072774;28;20582;-47
2023/03/13 13:18:45;;;;;;;0.63;0.60;;;17.50;62.20;;;;;;5065719;28;20222;-47
2023/03/13 13:21:25;;;;;;;1.20;0.60;;;17.50;62.10;;;;;;5045898;28;20210;-46
2023/03/13 13:24:38;;;;;;;1.83;1.20;;;17.50;62.20;;;;;;5071879;28;20216;-47
2023/03/13 13:27:31;;;;;;;1.70;1.00;;;17.50;62.50;;;;;;5069156;28;20692;-46
2023/03/13 13:30:24;;;;;;;2.10;0.97;;;17.50;62.50;;;;;;5072778;28;20209;-46
2023/03/13 13:33:19;;;;;;;1.33;0.83;;;17.50;62.50;;;;;;5067868;28;20217;-46
2023/03/13 13:36:08;;;;;;;1.00;0.80;;;17.50;62.30;;;;;;5081514;28;20665;-46
2023/03/13 13:38:50;;;;;;;1.63;1.00;;;17.50;62.80;;;;;;5071003;28;20299;-46
2023/03/13 13:41:33;;;;;;;1.70;0.80;;;17.50;62.50;;;;;;5062883;28;20634;-46